Time,TemperatureF,DewpointF,PressureIn,WindDirection,WindDirectionDegrees,WindSpeedMPH,WindSpeedGustMPH,Humidity,HourlyPrecipIn,Conditions,Clouds,dailyrainin,SoftwareType,DateUTC
2013-02-04 00:04:00,15.4,12.2,29.89,NE,39,8.0,9.0,87,0.00,,,0.00,Wunderground v.1.15,2013-02-04 06:04:00,
2013-02-04 00:09:00,15.3,11.9,29.89,NNE,33,8.0,9.0,86,0.00,,,0.00,Wunderground v.1.15,2013-02-04 06:09:00,
2013-02-04 00:15:00,15.1,11.7,29.89,NNE,32,9.0,9.0,86,0.00,,,0.00,Wunderground v.1.15,2013-02-04 06:15:00,
2013-02-04 00:20:00,14.9,11.7,29.89,NNE,31,7.0,9.0,87,0.00,,,0.00,Wunderground v.1.15,2013-02-04 06:20:00,
2013-02-04 00:26:00,14.8,11.4,29.89,NE,35,9.0,11.0,86,0.00,,,0.00,Wunderground v.1.15,2013-02-04 06:26:00,
2013-02-04 00:31:00,14.7,11.3,29.90,NE,35,7.0,8.0,86,0.00,,,0.00,Wunderground v.1.15,2013-02-04 06:31:00,
2013-02-04 00:37:00,14.5,11.3,29.90,NE,35,6.0,11.0,87,0.00,,,0.00,Wunderground v.1.15,2013-02-04 06:37:00,
2013-02-04 00:42:00,14.4,11.2,29.89,NNE,33,7.0,10.0,87,0.00,,,0.00,Wunderground v.1.15,2013-02-04 06:42:00,
2013-02-04 00:47:00,14.3,11.1,29.90,NNE,32,9.0,11.0,87,0.00,,,0.00,Wunderground v.1.15,2013-02-04 06:47:00,
2013-02-04 00:53:00,14.3,10.9,29.90,NNE,30,7.0,10.0,86,0.00,,,0.00,Wunderground v.1.15,2013-02-04 06:53:00,
2013-02-04 00:58:00,14.2,10.8,29.90,NNE,28,10.0,10.0,86,0.00,,,0.00,Wunderground v.1.15,2013-02-04 06:58:00,
2013-02-04 01:03:00,14.1,10.7,29.90,NNE,29,9.0,9.0,86,0.00,,,0.00,Wunderground v.1.15,2013-02-04 07:03:00,
2013-02-04 01:09:00,14.0,10.6,29.90,NNE,28,7.0,10.0,86,0.00,,,0.00,Wunderground v.1.15,2013-02-04 07:09:00,
2013-02-04 01:14:00,14.0,10.6,29.90,NNE,28,7.0,8.0,86,0.00,,,0.00,Wunderground v.1.15,2013-02-04 07:14:00,
2013-02-04 01:19:00,14.0,10.6,29.91,NNE,29,8.0,8.0,86,0.00,,,0.00,Wunderground v.1.15,2013-02-04 07:19:00,
2013-02-04 01:24:00,14.0,10.6,29.90,NNE,29,5.0,8.0,86,0.00,,,0.00,Wunderground v.1.15,2013-02-04 07:24:00,
2013-02-04 01:29:00,13.9,10.5,29.91,NNE,28,9.0,9.0,86,0.00,,,0.00,Wunderground v.1.15,2013-02-04 07:29:00,
2013-02-04 01:35:00,13.8,10.4,29.91,NNE,32,8.0,9.0,86,0.00,,,0.00,Wunderground v.1.15,2013-02-04 07:35:00,
2013-02-04 01:40:00,13.8,10.4,29.91,NNE,32,8.0,9.0,86,0.00,,,0.00,Wunderground v.1.15,2013-02-04 07:40:00,
2013-02-04 01:45:00,13.8,10.4,29.91,NNE,32,8.0,8.0,86,0.00,,,0.00,Wunderground v.1.15,2013-02-04 07:45:00,
2013-02-04 01:50:00,13.7,10.3,29.91,NNE,32,7.0,8.0,86,0.00,,,0.00,Wunderground v.1.15,2013-02-04 07:50:00,
2013-02-04 01:55:00,13.5,10.1,29.92,NNE,30,6.0,13.0,86,0.00,,,0.00,Wunderground v.1.15,2013-02-04 07:55:00,
2013-02-04 02:01:00,13.6,10.2,29.92,NNE,32,8.0,8.0,86,0.00,,,0.00,Wunderground v.1.15,2013-02-04 08:01:00,
2013-02-04 02:06:00,13.5,10.1,29.92,NNE,32,5.0,11.0,86,0.00,,,0.00,Wunderground v.1.15,2013-02-04 08:06:00,
2013-02-04 02:11:00,13.4,10.0,29.92,NNE,32,3.0,7.0,86,0.00,,,0.00,Wunderground v.1.15,2013-02-04 08:11:00,
2013-02-04 02:16:00,13.2,9.8,29.92,NNE,32,8.0,9.0,86,0.00,,,0.00,Wunderground v.1.15,2013-02-04 08:16:00,
2013-02-04 02:21:00,13.1,9.7,29.92,NNE,32,8.0,9.0,86,0.00,,,0.00,Wunderground v.1.15,2013-02-04 08:21:00,
2013-02-04 02:26:00,13.1,9.7,29.92,NNE,32,6.0,10.0,86,0.00,,,0.00,Wunderground v.1.15,2013-02-04 08:26:00,
2013-02-04 02:31:00,13.1,9.7,29.92,NNE,32,6.0,7.0,86,0.00,,,0.00,Wunderground v.1.15,2013-02-04 08:31:00,
2013-02-04 02:36:00,13.1,9.7,29.93,NNE,32,7.0,10.0,86,0.00,,,0.00,Wunderground v.1.15,2013-02-04 08:36:00,
2013-02-04 02:41:00,13.0,9.6,29.93,NNE,32,10.0,10.0,86,0.00,,,0.00,Wunderground v.1.15,2013-02-04 08:41:00,
2013-02-04 02:46:00,12.8,9.4,29.93,NNE,30,7.0,13.0,86,0.00,,,0.00,Wunderground v.1.15,2013-02-04 08:46:00,
2013-02-04 02:51:00,12.7,9.3,29.94,NNE,30,10.0,10.0,86,0.00,,,0.00,Wunderground v.1.15,2013-02-04 08:51:00,
2013-02-04 02:56:00,12.8,9.4,29.94,NNE,30,1.0,10.0,86,0.00,,,0.00,Wunderground v.1.15,2013-02-04 08:56:00,
2013-02-04 03:01:00,12.6,8.9,29.94,NNE,30,4.0,8.0,85,0.00,,,0.00,Wunderground v.1.15,2013-02-04 09:01:00,
2013-02-04 03:07:00,12.5,8.8,29.94,NNE,30,7.0,14.0,85,0.00,,,0.00,Wunderground v.1.15,2013-02-04 09:07:00,
2013-02-04 03:12:00,12.5,8.8,29.93,NNE,29,7.0,11.0,85,0.00,,,0.00,Wunderground v.1.15,2013-02-04 09:12:00,
2013-02-04 03:17:00,12.4,8.7,29.94,NNE,30,7.0,12.0,85,0.00,,,0.00,Wunderground v.1.15,2013-02-04 09:17:00,
2013-02-04 03:22:00,12.4,8.7,29.94,NNE,29,3.0,7.0,85,0.00,,,0.00,Wunderground v.1.15,2013-02-04 09:22:00,
2013-02-04 03:27:00,12.4,8.7,29.94,NNE,30,7.0,8.0,85,0.00,,,0.00,Wunderground v.1.15,2013-02-04 09:27:00,
2013-02-04 03:32:00,12.2,8.6,29.94,NNE,30,6.0,11.0,85,0.00,,,0.00,Wunderground v.1.15,2013-02-04 09:32:00,
2013-02-04 03:37:00,12.1,8.5,29.94,NNE,30,8.0,11.0,85,0.00,,,0.00,Wunderground v.1.15,2013-02-04 09:37:00,
2013-02-04 03:42:00,12.0,8.4,29.94,NNE,29,7.0,8.0,85,0.00,,,0.00,Wunderground v.1.15,2013-02-04 09:42:00,
2013-02-04 03:47:00,12.0,8.4,29.94,NNE,30,4.0,13.0,85,0.00,,,0.00,Wunderground v.1.15,2013-02-04 09:47:00,
2013-02-04 03:52:00,11.8,8.2,29.94,NNE,30,5.0,8.0,85,0.00,,,0.00,Wunderground v.1.15,2013-02-04 09:52:00,
2013-02-04 03:57:00,11.8,8.2,29.94,NNE,30,4.0,8.0,85,0.00,,,0.00,Wunderground v.1.15,2013-02-04 09:57:00,
2013-02-04 04:02:00,11.8,8.2,29.95,NNE,29,3.0,8.0,85,0.00,,,0.00,Wunderground v.1.15,2013-02-04 10:02:00,
2013-02-04 04:07:00,11.7,8.1,29.96,NNE,30,4.0,10.0,85,0.00,,,0.00,Wunderground v.1.15,2013-02-04 10:07:00,
2013-02-04 04:12:00,11.7,8.1,29.96,NNE,29,0.0,6.0,85,0.00,,,0.00,Wunderground v.1.15,2013-02-04 10:12:00,
2013-02-04 04:17:00,11.6,8.0,29.97,NNE,29,0.0,10.0,85,0.00,,,0.00,Wunderground v.1.15,2013-02-04 10:17:00,
2013-02-04 04:22:00,11.6,7.7,29.97,NNE,30,1.0,4.0,84,0.00,,,0.00,Wunderground v.1.15,2013-02-04 10:22:00,
2013-02-04 04:27:00,11.5,7.6,29.97,NNE,30,2.0,8.0,84,0.00,,,0.00,Wunderground v.1.15,2013-02-04 10:27:00,
2013-02-04 04:32:00,11.6,7.7,29.98,NNE,30,2.0,4.0,84,0.00,,,0.00,Wunderground v.1.15,2013-02-04 10:32:00,
2013-02-04 04:37:00,11.5,7.6,29.98,NNE,29,8.0,9.0,84,0.00,,,0.00,Wunderground v.1.15,2013-02-04 10:37:00,
2013-02-04 04:42:00,11.4,7.5,29.97,NNE,30,1.0,8.0,84,0.00,,,0.00,Wunderground v.1.15,2013-02-04 10:42:00,
2013-02-04 04:47:00,11.5,7.6,29.98,NNE,29,0.0,11.0,84,0.00,,,0.00,Wunderground v.1.15,2013-02-04 10:47:00,
2013-02-04 04:52:00,11.5,7.6,29.99,NNE,30,9.0,9.0,84,0.00,,,0.00,Wunderground v.1.15,2013-02-04 10:52:00,
2013-02-04 04:57:00,11.4,7.5,29.99,NNE,30,8.0,12.0,84,0.00,,,0.00,Wunderground v.1.15,2013-02-04 10:57:00,
2013-02-04 05:02:00,11.4,7.5,29.99,NNE,28,5.0,12.0,84,0.00,,,0.00,Wunderground v.1.15,2013-02-04 11:02:00,
2013-02-04 05:07:00,11.2,7.3,29.99,NNE,28,6.0,12.0,84,0.00,,,0.00,Wunderground v.1.15,2013-02-04 11:07:00,
2013-02-04 05:12:00,11.1,7.2,29.99,NNE,28,3.0,8.0,84,0.00,,,0.00,Wunderground v.1.15,2013-02-04 11:12:00,
2013-02-04 05:17:00,10.9,7.0,30.00,NNE,28,4.0,12.0,84,0.00,,,0.00,Wunderground v.1.15,2013-02-04 11:17:00,
2013-02-04 05:22:00,10.8,6.7,30.00,NNE,28,2.0,7.0,83,0.00,,,0.00,Wunderground v.1.15,2013-02-04 11:22:00,
2013-02-04 05:27:00,10.8,6.7,30.00,NNE,28,9.0,10.0,83,0.00,,,0.00,Wunderground v.1.15,2013-02-04 11:27:00,
2013-02-04 05:32:00,10.7,6.6,30.00,NNE,28,7.0,7.0,83,0.00,,,0.00,Wunderground v.1.15,2013-02-04 11:32:00,
2013-02-04 05:37:00,10.7,6.6,30.00,NNE,28,5.0,11.0,83,0.00,,,0.00,Wunderground v.1.15,2013-02-04 11:37:00,
2013-02-04 05:42:00,10.5,6.4,30.00,NNE,28,3.0,7.0,83,0.00,,,0.00,Wunderground v.1.15,2013-02-04 11:42:00,
2013-02-04 05:47:00,10.7,6.6,30.00,NNE,28,3.0,7.0,83,0.00,,,0.00,Wunderground v.1.15,2013-02-04 11:47:00,
2013-02-04 05:52:00,10.6,6.5,30.01,NNE,28,5.0,8.0,83,0.00,,,0.00,Wunderground v.1.15,2013-02-04 11:52:00,
2013-02-04 05:57:00,10.7,6.6,30.00,NNE,28,4.0,10.0,83,0.00,,,0.00,Wunderground v.1.15,2013-02-04 11:57:00,
2013-02-04 06:02:00,10.5,6.4,30.01,NNE,28,7.0,9.0,83,0.00,,,0.00,Wunderground v.1.15,2013-02-04 12:02:00,
2013-02-04 06:07:00,10.5,6.4,30.01,NNE,28,6.0,10.0,83,0.00,,,0.00,Wunderground v.1.15,2013-02-04 12:07:00,
2013-02-04 06:12:00,10.3,5.9,30.01,NNE,28,6.0,10.0,82,0.00,,,0.00,Wunderground v.1.15,2013-02-04 12:12:00,
2013-02-04 06:17:00,10.0,5.6,30.01,NNE,29,7.0,10.0,82,0.00,,,0.00,Wunderground v.1.15,2013-02-04 12:17:00,
2013-02-04 06:22:00,9.6,5.2,30.01,NNE,28,7.0,8.0,82,0.00,,,0.00,Wunderground v.1.15,2013-02-04 12:22:00,
2013-02-04 06:27:00,9.2,4.8,30.02,NNE,29,2.0,8.0,82,0.00,,,0.00,Wunderground v.1.15,2013-02-04 12:27:00,
2013-02-04 06:32:00,8.8,4.4,30.02,NNE,29,0.0,7.0,82,0.00,,,0.00,Wunderground v.1.15,2013-02-04 12:32:00,
2013-02-04 06:37:00,8.6,4.2,30.02,NNE,29,5.0,8.0,82,0.00,,,0.00,Wunderground v.1.15,2013-02-04 12:37:00,
2013-02-04 06:42:00,8.5,4.4,30.02,NNE,28,7.0,8.0,83,0.00,,,0.00,Wunderground v.1.15,2013-02-04 12:42:00,
2013-02-04 06:47:00,8.2,4.1,30.02,NNE,29,0.0,8.0,83,0.00,,,0.00,Wunderground v.1.15,2013-02-04 12:47:00,
2013-02-04 06:52:00,8.0,3.9,30.02,NNE,28,3.0,3.0,83,0.00,,,0.00,Wunderground v.1.15,2013-02-04 12:52:00,
2013-02-04 06:57:00,7.8,3.7,30.02,NNE,29,4.0,6.0,83,0.00,,,0.00,Wunderground v.1.15,2013-02-04 12:57:00,
2013-02-04 07:02:00,7.8,3.7,30.03,NNE,28,0.0,4.0,83,0.00,,,0.00,Wunderground v.1.15,2013-02-04 13:02:00,
2013-02-04 07:07:00,7.7,3.9,30.03,NNE,29,1.0,6.0,84,0.00,,,0.00,Wunderground v.1.15,2013-02-04 13:07:00,
2013-02-04 07:12:00,7.6,3.8,30.03,NNE,28,0.0,5.0,84,0.00,,,0.00,Wunderground v.1.15,2013-02-04 13:12:00,
2013-02-04 07:17:00,7.5,3.7,30.04,NNE,28,0.0,8.0,84,0.00,,,0.00,Wunderground v.1.15,2013-02-04 13:17:00,
2013-02-04 07:22:00,7.3,3.5,30.03,NNE,28,0.0,5.0,84,0.00,,,0.00,Wunderground v.1.15,2013-02-04 13:22:00,
2013-02-04 07:27:00,7.2,3.4,30.04,NNE,29,0.0,5.0,84,0.00,,,0.00,Wunderground v.1.15,2013-02-04 13:27:00,
2013-02-04 07:32:00,7.0,3.2,30.04,NNE,28,0.0,1.0,84,0.00,,,0.00,Wunderground v.1.15,2013-02-04 13:32:00,
2013-02-04 07:37:00,6.9,3.1,30.04,NNE,28,0.0,4.0,84,0.00,,,0.00,Wunderground v.1.15,2013-02-04 13:37:00,
2013-02-04 07:42:00,6.8,3.0,30.04,NNE,28,0.0,2.0,84,0.00,,,0.00,Wunderground v.1.15,2013-02-04 13:42:00,
2013-02-04 07:47:00,6.8,3.0,30.04,NNE,29,0.0,3.0,84,0.00,,,0.00,Wunderground v.1.15,2013-02-04 13:47:00,
2013-02-04 07:52:00,6.8,3.0,30.04,NNE,29,0.0,2.0,84,0.00,,,0.00,Wunderground v.1.15,2013-02-04 13:52:00,
2013-02-04 07:57:00,7.0,3.2,30.04,NNE,29,0.0,3.0,84,0.00,,,0.00,Wunderground v.1.15,2013-02-04 13:57:00,
2013-02-04 08:02:00,7.1,3.3,30.04,NNE,28,0.0,1.0,84,0.00,,,0.00,Wunderground v.1.15,2013-02-04 14:02:00,
2013-02-04 08:07:00,7.3,3.5,30.04,NNE,29,0.0,4.0,84,0.00,,,0.00,Wunderground v.1.15,2013-02-04 14:07:00,
2013-02-04 08:12:00,7.5,3.7,30.04,NNE,28,2.0,2.0,84,0.00,,,0.00,Wunderground v.1.15,2013-02-04 14:12:00,
2013-02-04 08:17:00,7.7,3.9,30.05,NNE,28,0.0,3.0,84,0.00,,,0.00,Wunderground v.1.15,2013-02-04 14:17:00,
2013-02-04 08:22:00,7.8,4.0,30.05,NNE,29,0.0,3.0,84,0.00,,,0.00,Wunderground v.1.15,2013-02-04 14:22:00,
2013-02-04 08:27:00,7.8,4.0,30.05,NNE,29,0.0,9.0,84,0.00,,,0.00,Wunderground v.1.15,2013-02-04 14:27:00,
2013-02-04 08:32:00,7.7,3.6,30.04,NNE,28,6.0,9.0,83,0.00,,,0.00,Wunderground v.1.15,2013-02-04 14:32:00,
2013-02-04 08:37:00,7.6,3.5,30.05,NNE,29,7.0,9.0,83,0.00,,,0.00,Wunderground v.1.15,2013-02-04 14:37:00,
2013-02-04 08:43:00,7.8,3.7,30.05,NNE,29,6.0,6.0,83,0.00,,,0.00,Wunderground v.1.15,2013-02-04 14:43:00,
2013-02-04 08:48:00,8.1,4.0,30.06,NNE,29,5.0,7.0,83,0.00,,,0.00,Wunderground v.1.15,2013-02-04 14:48:00,
2013-02-04 08:53:00,8.1,4.0,30.06,NNE,29,6.0,7.0,83,0.00,,,0.00,Wunderground v.1.15,2013-02-04 14:53:00,
2013-02-04 08:58:00,8.2,4.1,30.06,NNE,28,4.0,8.0,83,0.00,,,0.00,Wunderground v.1.15,2013-02-04 14:58:00,
2013-02-04 09:03:00,8.4,4.3,30.06,NNE,29,6.0,8.0,83,0.00,,,0.00,Wunderground v.1.15,2013-02-04 15:03:00,
2013-02-04 09:08:00,8.6,4.5,30.06,NNE,29,3.0,8.0,83,0.00,,,0.00,Wunderground v.1.15,2013-02-04 15:08:00,
2013-02-04 09:13:00,8.7,4.3,30.06,NNE,29,3.0,6.0,82,0.00,,,0.00,Wunderground v.1.15,2013-02-04 15:13:00,
2013-02-04 09:18:00,9.1,4.7,30.06,NNE,29,1.0,8.0,82,0.00,,,0.00,Wunderground v.1.15,2013-02-04 15:18:00,
2013-02-04 09:23:00,9.4,5.0,30.07,NNE,29,5.0,5.0,82,0.00,,,0.00,Wunderground v.1.15,2013-02-04 15:23:00,
2013-02-04 09:28:00,9.6,5.2,30.06,NNE,29,5.0,7.0,82,0.00,,,0.00,Wunderground v.1.15,2013-02-04 15:28:00,
2013-02-04 09:33:00,9.7,5.0,30.07,NNE,29,0.0,6.0,81,0.00,,,0.00,Wunderground v.1.15,2013-02-04 15:33:00,
2013-02-04 09:38:00,9.9,5.2,30.07,NNE,29,1.0,7.0,81,0.00,,,0.00,Wunderground v.1.15,2013-02-04 15:38:00,
2013-02-04 09:43:00,10.5,5.8,30.08,NNE,29,5.0,5.0,81,0.00,,,0.00,Wunderground v.1.15,2013-02-04 15:43:00,
2013-02-04 09:48:00,10.5,5.5,30.08,NNE,29,4.0,6.0,80,0.00,,,0.00,Wunderground v.1.15,2013-02-04 15:48:00,
2013-02-04 09:53:00,10.7,5.7,30.08,NNE,29,3.0,5.0,80,0.00,,,0.00,Wunderground v.1.15,2013-02-04 15:53:00,
2013-02-04 09:58:00,10.8,5.8,30.08,NNE,29,0.0,7.0,80,0.00,,,0.00,Wunderground v.1.15,2013-02-04 15:58:00,
2013-02-04 10:03:00,11.3,6.3,30.08,NNE,29,0.0,2.0,80,0.00,,,0.00,Wunderground v.1.15,2013-02-04 16:03:00,
2013-02-04 10:08:00,11.8,6.8,30.08,NNE,29,1.0,5.0,80,0.00,,,0.00,Wunderground v.1.15,2013-02-04 16:08:00,
2013-02-04 10:13:00,12.1,6.8,30.08,NNE,28,3.0,6.0,79,0.00,,,0.00,Wunderground v.1.15,2013-02-04 16:13:00,
2013-02-04 10:18:00,12.1,6.6,30.08,NNE,29,1.0,6.0,78,0.00,,,0.00,Wunderground v.1.15,2013-02-04 16:18:00,
2013-02-04 10:23:00,12.1,6.6,30.08,NNE,29,0.0,2.0,78,0.00,,,0.00,Wunderground v.1.15,2013-02-04 16:23:00,
2013-02-04 10:28:00,12.5,6.9,30.08,NNE,29,0.0,6.0,78,0.00,,,0.00,Wunderground v.1.15,2013-02-04 16:28:00,
2013-02-04 10:33:00,12.7,7.1,30.08,NNE,29,0.0,4.0,78,0.00,,,0.00,Wunderground v.1.15,2013-02-04 16:33:00,
2013-02-04 10:38:00,12.8,6.7,30.07,NNE,29,0.0,5.0,76,0.00,,,0.00,Wunderground v.1.15,2013-02-04 16:38:00,
2013-02-04 10:43:00,12.8,6.7,30.07,NNE,29,5.0,6.0,76,0.00,,,0.00,Wunderground v.1.15,2013-02-04 16:43:00,
2013-02-04 10:48:00,12.6,6.5,30.07,NNE,29,4.0,6.0,76,0.00,,,0.00,Wunderground v.1.15,2013-02-04 16:48:00,
2013-02-04 10:53:00,13.4,7.5,30.07,NNE,29,0.0,3.0,77,0.00,,,0.00,Wunderground v.1.15,2013-02-04 16:53:00,
2013-02-04 10:58:00,13.9,7.7,30.07,NNE,29,4.0,4.0,76,0.00,,,0.00,Wunderground v.1.15,2013-02-04 16:58:00,
2013-02-04 11:03:00,13.2,6.5,30.07,NNE,29,1.0,4.0,74,0.00,,,0.00,Wunderground v.1.15,2013-02-04 17:03:00,
2013-02-04 11:08:00,13.3,6.9,30.06,NNE,29,2.0,6.0,75,0.00,,,0.00,Wunderground v.1.15,2013-02-04 17:08:00,
2013-02-04 11:13:00,13.4,7.0,30.06,NNE,29,0.0,3.0,75,0.00,,,0.00,Wunderground v.1.15,2013-02-04 17:13:00,
2013-02-04 11:18:00,13.5,7.0,30.06,NNE,29,3.0,7.0,75,0.00,,,0.00,Wunderground v.1.15,2013-02-04 17:18:00,
2013-02-04 11:23:00,13.7,7.5,30.06,NNE,29,1.0,3.0,76,0.00,,,0.00,Wunderground v.1.15,2013-02-04 17:23:00,
2013-02-04 11:28:00,14.1,7.6,30.05,NNE,29,0.0,6.0,75,0.00,,,0.00,Wunderground v.1.15,2013-02-04 17:28:00,
2013-02-04 11:33:00,14.5,8.0,30.06,NNE,29,3.0,5.0,75,0.00,,,0.00,Wunderground v.1.15,2013-02-04 17:33:00,
2013-02-04 11:38:00,14.7,7.9,30.05,NNE,29,4.0,5.0,74,0.00,,,0.00,Wunderground v.1.15,2013-02-04 17:38:00,
2013-02-04 11:43:00,14.6,7.5,30.05,NNE,29,6.0,6.0,73,0.00,,,0.00,Wunderground v.1.15,2013-02-04 17:43:00,
2013-02-04 11:48:00,14.8,7.7,30.04,NNE,29,1.0,6.0,73,0.00,,,0.00,Wunderground v.1.15,2013-02-04 17:48:00,
2013-02-04 11:53:00,15.0,8.2,30.04,NNE,29,4.0,6.0,74,0.00,,,0.00,Wunderground v.1.15,2013-02-04 17:53:00,
2013-02-04 11:58:00,15.4,8.6,30.03,NNE,29,1.0,7.0,74,0.00,,,0.00,Wunderground v.1.15,2013-02-04 17:58:00,
2013-02-04 12:03:00,15.4,8.3,30.03,NNE,29,1.0,3.0,73,0.00,,,0.00,Wunderground v.1.15,2013-02-04 18:03:00,
2013-02-04 12:08:00,15.4,8.3,30.02,NNE,29,3.0,4.0,73,0.00,,,0.00,Wunderground v.1.15,2013-02-04 18:08:00,
2013-02-04 12:13:00,15.8,8.7,30.02,NNE,29,3.0,4.0,73,0.00,,,0.00,Wunderground v.1.15,2013-02-04 18:13:00,
2013-02-04 12:18:00,16.1,9.0,30.02,NNE,29,1.0,5.0,73,0.00,,,0.00,Wunderground v.1.15,2013-02-04 18:18:00,
2013-02-04 12:23:00,16.3,8.9,30.02,NNE,29,4.0,5.0,72,0.00,,,0.00,Wunderground v.1.15,2013-02-04 18:23:00,
2013-02-04 12:28:00,16.4,8.9,30.03,NNE,29,0.0,5.0,72,0.00,,,0.00,Wunderground v.1.15,2013-02-04 18:28:00,
2013-02-04 12:33:00,16.7,9.2,30.03,NNE,29,1.0,2.0,72,0.00,,,0.00,Wunderground v.1.15,2013-02-04 18:33:00,
2013-02-04 12:38:00,17.1,9.6,30.03,NNE,29,1.0,3.0,72,0.00,,,0.00,Wunderground v.1.15,2013-02-04 18:38:00,
2013-02-04 12:43:00,17.1,9.3,30.04,NNE,29,0.0,2.0,71,0.00,,,0.00,Wunderground v.1.15,2013-02-04 18:43:00,
2013-02-04 12:48:00,17.4,9.6,30.04,NNE,29,0.0,4.0,71,0.00,,,0.00,Wunderground v.1.15,2013-02-04 18:48:00,
2013-02-04 12:53:00,17.7,9.9,30.03,NNE,29,0.0,1.0,71,0.00,,,0.00,Wunderground v.1.15,2013-02-04 18:53:00,
2013-02-04 12:58:00,17.7,9.6,30.04,NNE,29,0.0,4.0,70,0.00,,,0.00,Wunderground v.1.15,2013-02-04 18:58:00,
2013-02-04 13:03:00,17.4,9.3,30.03,NNE,29,1.0,5.0,70,0.00,,,0.00,Wunderground v.1.15,2013-02-04 19:03:00,
2013-02-04 13:08:00,17.4,9.6,30.03,NNE,29,0.0,5.0,71,0.00,,,0.00,Wunderground v.1.15,2013-02-04 19:08:00,
2013-02-04 13:13:00,17.5,9.7,30.03,NNE,29,2.0,6.0,71,0.00,,,0.00,Wunderground v.1.15,2013-02-04 19:13:00,
2013-02-04 13:18:00,17.5,9.7,30.04,NNE,29,0.0,6.0,71,0.00,,,0.00,Wunderground v.1.15,2013-02-04 19:18:00,
2013-02-04 13:23:00,17.7,9.9,30.04,NNE,29,0.0,6.0,71,0.00,,,0.00,Wunderground v.1.15,2013-02-04 19:23:00,
2013-02-04 13:29:00,17.7,10.2,30.04,NNE,29,3.0,8.0,72,0.00,,,0.00,Wunderground v.1.15,2013-02-04 19:29:00,
2013-02-04 13:34:00,17.8,10.3,30.04,NNE,29,6.0,7.0,72,0.00,,,0.00,Wunderground v.1.15,2013-02-04 19:34:00,
2013-02-04 13:39:00,17.8,10.0,30.04,NNE,29,4.0,7.0,71,0.00,,,0.00,Wunderground v.1.15,2013-02-04 19:39:00,
2013-02-04 13:44:00,18.0,10.2,30.04,NNE,29,2.0,5.0,71,0.00,,,0.00,Wunderground v.1.15,2013-02-04 19:44:00,
2013-02-04 13:49:00,18.6,10.8,30.03,NNE,29,4.0,6.0,71,0.00,,,0.00,Wunderground v.1.15,2013-02-04 19:49:00,
2013-02-04 13:54:00,18.6,10.4,30.03,NNE,29,0.0,5.0,70,0.00,,,0.00,Wunderground v.1.15,2013-02-04 19:54:00,
2013-02-04 13:59:00,18.9,10.7,30.02,NNE,17,5.0,8.0,70,0.00,,,0.00,Wunderground v.1.15,2013-02-04 19:59:00,
2013-02-04 14:04:00,18.7,10.9,30.02,NNE,17,1.0,6.0,71,0.00,,,0.00,Wunderground v.1.15,2013-02-04 20:04:00,
2013-02-04 14:09:00,18.8,10.9,30.01,NNE,17,6.0,6.0,71,0.00,,,0.00,Wunderground v.1.15,2013-02-04 20:09:00,
2013-02-04 14:14:00,18.7,10.9,30.02,NNE,17,1.0,5.0,71,0.00,,,0.00,Wunderground v.1.15,2013-02-04 20:14:00,
2013-02-04 14:19:00,18.5,10.7,30.02,NNE,14,3.0,7.0,71,0.00,,,0.00,Wunderground v.1.15,2013-02-04 20:19:00,
2013-02-04 14:24:00,18.5,11.0,30.01,NNE,14,1.0,4.0,72,0.00,,,0.00,Wunderground v.1.15,2013-02-04 20:24:00,
2013-02-04 14:29:00,18.6,11.1,30.01,NNE,15,3.0,5.0,72,0.00,,,0.00,Wunderground v.1.15,2013-02-04 20:29:00,
2013-02-04 14:34:00,18.5,11.0,30.01,NNE,15,0.0,2.0,72,0.00,,,0.00,Wunderground v.1.15,2013-02-04 20:34:00,
2013-02-04 14:39:00,18.8,11.6,30.00,NNE,15,1.0,5.0,73,0.00,,,0.00,Wunderground v.1.15,2013-02-04 20:39:00,
2013-02-04 14:44:00,18.9,11.7,30.00,NNE,14,0.0,3.0,73,0.00,,,0.00,Wunderground v.1.15,2013-02-04 20:44:00,
2013-02-04 14:49:00,19.1,11.9,30.00,NNE,15,1.0,5.0,73,0.00,,,0.00,Wunderground v.1.15,2013-02-04 20:49:00,
2013-02-04 14:54:00,19.2,12.0,30.01,NNE,15,2.0,5.0,73,0.00,,,0.00,Wunderground v.1.15,2013-02-04 20:54:00,
2013-02-04 14:59:00,19.1,11.9,30.00,NNE,14,0.0,5.0,73,0.00,,,0.00,Wunderground v.1.15,2013-02-04 20:59:00,
2013-02-04 15:04:00,19.2,12.0,30.00,NNE,15,0.0,1.0,73,0.00,,,0.00,Wunderground v.1.15,2013-02-04 21:04:00,
2013-02-04 15:15:00,19.2,12.0,30.00,NNE,14,1.0,2.0,73,0.00,,,0.00,Wunderground v.1.15,2013-02-04 21:15:00,
2013-02-04 15:20:00,19.1,11.9,30.00,NNE,15,4.0,7.0,73,0.00,,,0.00,Wunderground v.1.15,2013-02-04 21:20:00,
2013-02-04 15:25:00,19.2,12.3,30.00,NNE,15,3.0,5.0,74,0.00,,,0.00,Wunderground v.1.15,2013-02-04 21:25:00,
2013-02-04 15:30:00,19.3,12.4,30.00,NNE,14,3.0,5.0,74,0.00,,,0.00,Wunderground v.1.15,2013-02-04 21:30:00,
2013-02-04 15:35:00,19.7,12.8,30.00,North,5,5.0,9.0,74,0.00,,,0.00,Wunderground v.1.15,2013-02-04 21:35:00,
2013-02-04 15:40:00,19.7,12.8,30.00,North,360,6.0,9.0,74,0.00,,,0.00,Wunderground v.1.15,2013-02-04 21:40:00,
2013-02-04 15:45:00,19.7,12.8,30.00,North,5,0.0,5.0,74,0.00,,,0.00,Wunderground v.1.15,2013-02-04 21:45:00,
2013-02-04 15:50:00,19.7,12.8,30.00,North,5,4.0,6.0,74,0.00,,,0.00,Wunderground v.1.15,2013-02-04 21:50:00,
2013-02-04 15:55:00,19.5,12.6,29.99,North,5,1.0,5.0,74,0.00,,,0.00,Wunderground v.1.15,2013-02-04 21:55:00,
2013-02-04 16:00:00,19.7,13.1,29.99,North,360,2.0,5.0,75,0.00,,,0.00,Wunderground v.1.15,2013-02-04 22:00:00,
2013-02-04 16:05:00,19.7,13.1,29.98,North,5,0.0,4.0,75,0.00,,,0.00,Wunderground v.1.15,2013-02-04 22:05:00,
2013-02-04 16:10:00,19.7,13.1,29.98,North,360,1.0,4.0,75,0.00,,,0.00,Wunderground v.1.15,2013-02-04 22:10:00,
2013-02-04 16:15:00,19.7,13.1,29.98,North,5,3.0,4.0,75,0.00,,,0.00,Wunderground v.1.15,2013-02-04 22:15:00,
2013-02-04 16:20:00,19.7,13.1,29.98,North,5,1.0,4.0,75,0.00,,,0.00,Wunderground v.1.15,2013-02-04 22:20:00,
2013-02-04 16:25:00,19.7,13.1,29.97,North,360,3.0,4.0,75,0.00,,,0.00,Wunderground v.1.15,2013-02-04 22:25:00,
2013-02-04 16:30:00,19.9,13.3,29.97,North,5,3.0,6.0,75,0.00,,,0.00,Wunderground v.1.15,2013-02-04 22:30:00,
2013-02-04 16:35:00,19.9,13.3,29.96,North,360,2.0,6.0,75,0.00,,,0.00,Wunderground v.1.15,2013-02-04 22:35:00,
2013-02-04 16:40:00,20.2,13.5,29.96,North,5,4.0,7.0,75,0.00,,,0.00,Wunderground v.1.15,2013-02-04 22:40:00,
2013-02-04 16:45:00,19.9,13.3,29.96,North,5,5.0,7.0,75,0.00,,,0.00,Wunderground v.1.15,2013-02-04 22:45:00,
2013-02-04 16:50:00,19.7,13.4,29.96,North,360,3.0,7.0,76,0.00,,,0.00,Wunderground v.1.15,2013-02-04 22:50:00,
2013-02-04 16:55:00,19.7,13.4,29.96,North,360,4.0,5.0,76,0.00,,,0.00,Wunderground v.1.15,2013-02-04 22:55:00,
2013-02-04 17:00:00,19.7,13.7,29.96,North,5,2.0,5.0,77,0.00,,,0.00,Wunderground v.1.15,2013-02-04 23:00:00,
2013-02-04 17:05:00,19.4,13.1,29.96,North,5,4.0,7.0,76,0.00,,,0.00,Wunderground v.1.15,2013-02-04 23:05:00,
2013-02-04 17:10:00,19.3,13.3,29.96,North,5,4.0,7.0,77,0.00,,,0.00,Wunderground v.1.15,2013-02-04 23:10:00,
2013-02-04 17:16:00,19.1,13.1,29.96,North,5,4.0,5.0,77,0.00,,,0.00,Wunderground v.1.15,2013-02-04 23:16:00,
2013-02-04 17:21:00,18.9,13.2,29.96,North,360,7.0,7.0,78,0.00,,,0.00,Wunderground v.1.15,2013-02-04 23:21:00,
2013-02-04 17:26:00,19.1,13.4,29.96,North,5,3.0,7.0,78,0.00,,,0.00,Wunderground v.1.15,2013-02-04 23:26:00,
2013-02-04 17:31:00,19.0,13.6,29.96,North,360,5.0,7.0,79,0.00,,,0.00,Wunderground v.1.15,2013-02-04 23:31:00,
2013-02-04 17:36:00,19.1,13.7,29.96,North,360,3.0,8.0,79,0.00,,,0.00,Wunderground v.1.15,2013-02-04 23:36:00,
2013-02-04 17:41:00,19.2,13.8,29.95,North,360,2.0,8.0,79,0.00,,,0.00,Wunderground v.1.15,2013-02-04 23:41:00,
2013-02-04 17:46:00,19.1,13.7,29.95,North,5,2.0,4.0,79,0.00,,,0.00,Wunderground v.1.15,2013-02-04 23:46:00,
2013-02-04 17:51:00,19.2,14.0,29.94,North,360,2.0,2.0,80,0.00,,,0.00,Wunderground v.1.15,2013-02-04 23:51:00,
2013-02-04 17:56:00,19.3,14.1,29.94,North,5,1.0,6.0,80,0.00,,,0.00,Wunderground v.1.15,2013-02-04 23:56:00,
2013-02-04 18:01:00,19.2,14.0,29.94,North,5,4.0,6.0,80,0.00,,,0.00,Wunderground v.1.15,2013-02-05 00:01:00,
2013-02-04 18:06:00,19.2,14.0,29.94,North,5,6.0,7.0,80,0.00,,,0.00,Wunderground v.1.15,2013-02-05 00:06:00,
2013-02-04 18:11:00,19.1,13.9,29.93,North,5,3.0,7.0,80,0.00,,,0.00,Wunderground v.1.15,2013-02-05 00:11:00,
2013-02-04 18:16:00,19.0,13.8,29.93,North,5,6.0,8.0,80,0.00,,,0.00,Wunderground v.1.15,2013-02-05 00:16:00,
2013-02-04 18:21:00,18.9,13.7,29.93,North,5,7.0,7.0,80,0.00,,,0.00,Wunderground v.1.15,2013-02-05 00:21:00,
2013-02-04 18:26:00,18.7,13.6,29.93,North,5,6.0,8.0,80,0.00,,,0.00,Wunderground v.1.15,2013-02-05 00:26:00,
2013-02-04 18:31:00,18.4,13.5,29.93,North,5,3.0,5.0,81,0.00,,,0.00,Wunderground v.1.15,2013-02-05 00:31:00,
2013-02-04 18:36:00,18.2,13.3,29.93,North,5,3.0,7.0,81,0.00,,,0.00,Wunderground v.1.15,2013-02-05 00:36:00,
2013-02-04 18:41:00,18.2,13.3,29.93,North,360,7.0,7.0,81,0.00,,,0.00,Wunderground v.1.15,2013-02-05 00:41:00,
2013-02-04 18:47:00,18.3,13.7,29.93,North,5,2.0,7.0,82,0.00,,,0.00,Wunderground v.1.15,2013-02-05 00:47:00,
2013-02-04 18:52:00,18.6,14.0,29.92,North,5,6.0,6.0,82,0.00,,,0.00,Wunderground v.1.15,2013-02-05 00:52:00,
2013-02-04 18:57:00,19.0,14.4,29.92,North,5,4.0,10.0,82,0.00,,,0.00,Wunderground v.1.15,2013-02-05 00:57:00,
2013-02-04 19:02:00,19.3,14.7,29.92,North,5,8.0,8.0,82,0.00,,,0.00,Wunderground v.1.15,2013-02-05 01:02:00,
2013-02-04 19:07:00,19.3,14.7,29.92,NW,321,8.0,11.0,82,0.00,,,0.00,Wunderground v.1.15,2013-02-05 01:07:00,
2013-02-04 19:12:00,19.4,14.8,29.92,West,265,9.0,11.0,82,0.00,,,0.00,Wunderground v.1.15,2013-02-05 01:12:00,
2013-02-04 19:17:00,19.4,14.8,29.91,West,259,6.0,11.0,82,0.00,,,0.00,Wunderground v.1.15,2013-02-05 01:17:00,
2013-02-04 19:22:00,19.2,14.6,29.91,SW,234,9.0,10.0,82,0.00,,,0.00,Wunderground v.1.15,2013-02-05 01:22:00,
2013-02-04 19:27:00,18.9,14.3,29.91,SW,234,4.0,11.0,82,0.00,,,0.00,Wunderground v.1.15,2013-02-05 01:27:00,
2013-02-04 19:32:00,18.5,13.9,29.91,SW,230,4.0,8.0,82,0.00,,,0.00,Wunderground v.1.15,2013-02-05 01:32:00,
2013-02-04 19:37:00,18.4,14.1,29.91,SW,229,7.0,11.0,83,0.00,,,0.00,Wunderground v.1.15,2013-02-05 01:37:00,
2013-02-04 19:42:00,18.4,14.1,29.91,SW,229,7.0,9.0,83,0.00,,,0.00,Wunderground v.1.15,2013-02-05 01:42:00,
2013-02-04 19:47:00,18.6,14.3,29.91,SW,229,8.0,11.0,83,0.00,,,0.00,Wunderground v.1.15,2013-02-05 01:47:00,
2013-02-04 19:52:00,18.6,14.3,29.92,SW,229,5.0,8.0,83,0.00,,,0.00,Wunderground v.1.15,2013-02-05 01:52:00,
2013-02-04 19:57:00,18.7,14.4,29.92,SW,229,6.0,11.0,83,0.00,,,0.00,Wunderground v.1.15,2013-02-05 01:57:00,
2013-02-04 20:02:00,18.9,14.6,29.91,SW,229,10.0,10.0,83,0.00,,,0.00,Wunderground v.1.15,2013-02-05 02:02:00,
2013-02-04 20:07:00,19.0,14.7,29.91,SW,227,5.0,11.0,83,0.00,,,0.00,Wunderground v.1.15,2013-02-05 02:07:00,
2013-02-04 20:12:00,19.1,14.8,29.90,SW,223,10.0,12.0,83,0.00,,,0.00,Wunderground v.1.15,2013-02-05 02:12:00,
2013-02-04 20:17:00,19.3,15.0,29.91,SW,223,7.0,12.0,83,0.00,,,0.00,Wunderground v.1.15,2013-02-05 02:17:00,
2013-02-04 20:22:00,19.4,15.1,29.91,SW,223,6.0,8.0,83,0.00,,,0.00,Wunderground v.1.15,2013-02-05 02:22:00,
2013-02-04 20:27:00,19.7,15.4,29.91,SW,223,11.0,11.0,83,0.00,,,0.00,Wunderground v.1.15,2013-02-05 02:27:00,
2013-02-04 20:32:00,19.7,15.4,29.92,SW,223,9.0,10.0,83,0.00,,,0.00,Wunderground v.1.15,2013-02-05 02:32:00,
2013-02-04 20:37:00,19.7,15.1,29.92,SW,223,8.0,12.0,82,0.00,,,0.00,Wunderground v.1.15,2013-02-05 02:37:00,
2013-02-04 20:42:00,19.7,15.1,29.91,SW,215,9.0,14.0,82,0.00,,,0.00,Wunderground v.1.15,2013-02-05 02:42:00,
2013-02-04 20:47:00,19.8,15.2,29.91,SW,216,13.0,14.0,82,0.00,,,0.00,Wunderground v.1.15,2013-02-05 02:47:00,
2013-02-04 20:52:00,19.9,15.3,29.91,SW,215,11.0,12.0,82,0.00,,,0.00,Wunderground v.1.15,2013-02-05 02:52:00,
2013-02-04 20:57:00,20.0,15.4,29.91,SW,215,7.0,13.0,82,0.00,,,0.00,Wunderground v.1.15,2013-02-05 02:57:00,
2013-02-04 21:02:00,20.0,15.4,29.90,SW,215,12.0,14.0,82,0.00,,,0.00,Wunderground v.1.15,2013-02-05 03:02:00,
2013-02-04 21:07:00,20.1,15.5,29.90,SW,215,9.0,14.0,82,0.00,,,0.00,Wunderground v.1.15,2013-02-05 03:07:00,
2013-02-04 21:12:00,20.2,15.6,29.90,SW,215,9.0,12.0,82,0.00,,,0.00,Wunderground v.1.15,2013-02-05 03:12:00,
2013-02-04 21:17:00,20.3,15.7,29.89,SW,215,9.0,12.0,82,0.00,,,0.00,Wunderground v.1.15,2013-02-05 03:17:00,
2013-02-04 21:22:00,20.3,15.7,29.89,SW,214,9.0,12.0,82,0.00,,,0.00,Wunderground v.1.15,2013-02-05 03:22:00,
2013-02-04 21:27:00,20.3,15.7,29.89,SW,214,4.0,12.0,82,0.00,,,0.00,Wunderground v.1.15,2013-02-05 03:27:00,
2013-02-04 21:32:00,20.3,15.7,29.89,SW,214,5.0,11.0,82,0.00,,,0.00,Wunderground v.1.15,2013-02-05 03:32:00,
2013-02-04 21:37:00,20.4,15.8,29.89,SW,214,8.0,11.0,82,0.00,,,0.00,Wunderground v.1.15,2013-02-05 03:37:00,
2013-02-04 21:42:00,20.5,15.9,29.89,SW,214,6.0,9.0,82,0.00,,,0.00,Wunderground v.1.15,2013-02-05 03:42:00,
2013-02-04 21:47:00,20.6,16.0,29.89,SW,214,5.0,11.0,82,0.00,,,0.00,Wunderground v.1.15,2013-02-05 03:47:00,
2013-02-04 21:52:00,20.5,15.9,29.89,SW,214,7.0,9.0,82,0.00,,,0.00,Wunderground v.1.15,2013-02-05 03:52:00,
2013-02-04 21:57:00,20.6,16.0,29.88,SW,214,7.0,11.0,82,0.00,,,0.00,Wunderground v.1.15,2013-02-05 03:57:00,
2013-02-04 22:02:00,20.6,16.3,29.88,SW,214,6.0,10.0,83,0.00,,,0.00,Wunderground v.1.15,2013-02-05 04:02:00,
2013-02-04 22:07:00,20.7,16.4,29.88,SW,214,9.0,11.0,83,0.00,,,0.00,Wunderground v.1.15,2013-02-05 04:07:00,
2013-02-04 22:12:00,20.6,16.3,29.88,SW,214,7.0,9.0,83,0.00,,,0.00,Wunderground v.1.15,2013-02-05 04:12:00,
2013-02-04 22:17:00,20.6,16.3,29.88,SW,214,10.0,12.0,83,0.00,,,0.00,Wunderground v.1.15,2013-02-05 04:17:00,
2013-02-04 22:22:00,20.6,16.3,29.88,SW,214,8.0,11.0,83,0.00,,,0.00,Wunderground v.1.15,2013-02-05 04:22:00,
2013-02-04 22:27:00,20.7,16.4,29.87,SW,214,8.0,13.0,83,0.00,,,0.00,Wunderground v.1.15,2013-02-05 04:27:00,
2013-02-04 22:32:00,20.7,16.4,29.87,SSW,213,9.0,12.0,83,0.00,,,0.00,Wunderground v.1.15,2013-02-05 04:32:00,
2013-02-04 22:38:00,20.8,16.7,29.88,SW,214,12.0,12.0,84,0.00,,,0.00,Wunderground v.1.15,2013-02-05 04:38:00,
2013-02-04 22:43:00,20.9,16.8,29.87,SW,214,8.0,10.0,84,0.00,,,0.00,Wunderground v.1.15,2013-02-05 04:43:00,
2013-02-04 22:48:00,21.0,16.9,29.87,SW,214,9.0,12.0,84,0.00,,,0.00,Wunderground v.1.15,2013-02-05 04:48:00,
2013-02-04 22:53:00,21.1,17.0,29.86,SSW,212,10.0,12.0,84,0.00,,,0.00,Wunderground v.1.15,2013-02-05 04:53:00,
2013-02-04 22:58:00,21.2,17.1,29.86,SSW,213,9.0,12.0,84,0.00,,,0.00,Wunderground v.1.15,2013-02-05 04:58:00,
2013-02-04 23:00:00,21.3,17.2,29.86,SSW,213,14.0,14.0,84,0.00,,,0.00,Wunderground v.1.15,2013-02-05 05:00:00,
2013-02-04 23:01:00,21.3,17.2,29.86,SW,216,8.0,14.0,84,0.00,,,0.00,Wunderground v.1.15,2013-02-05 05:01:00,
2013-02-04 23:06:00,21.4,17.3,29.86,SW,215,10.0,12.0,84,0.00,,,0.00,Wunderground v.1.15,2013-02-05 05:06:00,
2013-02-04 23:11:00,21.4,17.3,29.86,SW,215,6.0,13.0,84,0.00,,,0.00,Wunderground v.1.15,2013-02-05 05:11:00,
2013-02-04 23:16:00,21.5,17.4,29.86,SW,214,6.0,13.0,84,0.00,,,0.00,Wunderground v.1.15,2013-02-05 05:16:00,
2013-02-04 23:21:00,21.5,17.4,29.85,SSW,213,9.0,13.0,84,0.00,,,0.00,Wunderground v.1.15,2013-02-05 05:21:00,
2013-02-04 23:26:00,21.5,17.4,29.85,SW,214,8.0,13.0,84,0.00,,,0.00,Wunderground v.1.15,2013-02-05 05:26:00,
2013-02-04 23:31:00,21.5,17.4,29.84,SSW,211,8.0,15.0,84,0.00,,,0.00,Wunderground v.1.15,2013-02-05 05:31:00,
2013-02-04 23:36:00,21.5,17.4,29.84,SSW,210,7.0,17.0,84,0.00,,,0.00,Wunderground v.1.15,2013-02-05 05:36:00,
2013-02-04 23:41:00,21.5,17.4,29.83,SSW,209,12.0,17.0,84,0.00,,,0.00,Wunderground v.1.15,2013-02-05 05:41:00,
2013-02-04 23:46:00,21.6,17.5,29.83,SSW,207,7.0,14.0,84,0.00,,,0.00,Wunderground v.1.15,2013-02-05 05:46:00,
2013-02-04 23:51:00,21.5,17.4,29.83,SSW,205,7.0,14.0,84,0.00,,,0.00,Wunderground v.1.15,2013-02-05 05:51:00,
2013-02-04 23:56:00,21.5,17.4,29.82,SSW,202,15.0,15.0,84,0.00,,,0.00,Wunderground v.1.15,2013-02-05 05:56:00,